createdAt,value
2019-04-06T00:05:36.905Z,48.60
2019-04-06T00:11:36.917Z,48.10
2019-04-06T00:17:36.894Z,50.90
2019-04-06T00:23:36.894Z,51.70
2019-04-06T00:29:36.952Z,50.80
2019-04-06T00:35:36.916Z,46.70
2019-04-06T00:41:36.937Z,47.20
2019-04-06T00:47:37.921Z,52.60
2019-04-06T00:53:36.888Z,49.80
2019-04-06T00:59:36.929Z,54.30
2019-04-06T01:05:36.899Z,49.40
2019-04-06T01:11:36.935Z,43.30
2019-04-06T01:17:36.957Z,47.10
2019-04-06T01:23:36.966Z,46.00
2019-04-06T01:29:36.901Z,39.80
2019-04-06T01:35:36.924Z,41.10
2019-04-06T01:41:36.902Z,41.40
2019-04-06T01:47:36.997Z,44.10
2019-04-06T01:53:36.925Z,41.70
2019-04-06T01:59:36.954Z,40.70
2019-04-06T02:05:36.951Z,45.20
2019-04-06T02:11:36.953Z,43.60
2019-04-06T02:17:36.949Z,39.80
2019-04-06T02:23:36.953Z,42.30
2019-04-06T02:29:36.965Z,37.40
2019-04-06T02:35:37.080Z,36.80
2019-04-06T02:41:36.965Z,36.30
2019-04-06T02:53:36.972Z,35.30
2019-04-06T02:59:36.934Z,36.70
2019-04-06T03:05:37.006Z,35.90
2019-04-06T03:11:36.939Z,36.30
2019-04-06T03:17:37.046Z,34.90
2019-04-06T03:23:49.743Z,33.60
2019-04-06T03:29:36.930Z,37.20
2019-04-06T03:35:37.104Z,35.10
2019-04-06T03:41:37.005Z,35.50
2019-04-06T03:47:36.978Z,33.60
2019-04-06T03:53:36.962Z,30.00
2019-04-06T03:59:36.972Z,36.00
2019-04-06T04:05:37.121Z,36.50
2019-04-06T04:11:36.965Z,31.10
2019-04-06T04:17:37.257Z,32.70
2019-04-06T04:23:36.996Z,36.40
2019-04-06T04:29:36.967Z,32.00
2019-04-06T04:35:37.049Z,33.80
2019-04-06T04:41:39.346Z,32.00
2019-04-06T04:47:37.072Z,35.80
2019-04-06T04:53:36.985Z,32.10
2019-04-06T04:59:36.966Z,30.30
2019-04-06T05:05:37.129Z,30.10
2019-04-06T05:11:36.978Z,32.20
2019-04-06T05:17:37.000Z,31.80
2019-04-06T05:23:36.968Z,31.20
2019-04-06T05:29:37.005Z,32.30
2019-04-06T05:35:36.996Z,39.90
2019-04-06T05:41:37.050Z,40.70
2019-04-06T05:47:36.981Z,27.30
2019-04-06T05:53:36.992Z,34.10
2019-04-06T05:59:39.906Z,30.20
2019-04-06T06:05:40.331Z,29.70
2019-04-06T06:11:37.097Z,31.40
2019-04-06T06:17:37.076Z,31.10
2019-04-06T06:23:36.997Z,35.50
2019-04-06T06:29:37.039Z,40.00
2019-04-06T06:35:37.004Z,39.80
2019-04-06T06:41:36.981Z,41.30
2019-04-06T06:47:36.991Z,40.90
2019-04-06T06:53:37.053Z,34.50
2019-04-06T06:59:37.008Z,31.60
2019-04-06T07:05:39.398Z,27.50
2019-04-06T07:11:39.457Z,26.90
2019-04-06T07:17:37.008Z,25.20
2019-04-06T07:23:37.020Z,26.10
2019-04-06T07:29:36.990Z,24.50
2019-04-06T07:35:37.135Z,23.40
2019-04-06T07:41:37.191Z,22.90
2019-04-06T07:47:37.045Z,22.40
2019-04-06T07:53:37.056Z,25.00
2019-04-06T07:59:37.020Z,22.00
2019-04-06T08:05:37.082Z,23.70
2019-04-06T08:11:37.036Z,22.50
2019-04-06T08:17:37.048Z,22.40
2019-04-06T08:23:37.174Z,22.50
2019-04-06T08:29:37.031Z,22.50
2019-04-06T08:35:37.021Z,26.70
2019-04-06T08:41:39.791Z,27.20
2019-04-06T08:47:37.639Z,28.70
2019-04-06T08:53:37.040Z,28.00
2019-04-06T08:59:37.081Z,26.20
2019-04-06T09:05:37.209Z,28.30
2019-04-06T09:11:37.088Z,30.20
2019-04-06T09:17:37.096Z,29.00
2019-04-06T09:23:37.124Z,29.60
2019-04-06T09:29:37.266Z,27.90
2019-04-06T09:35:37.156Z,29.50
2019-04-06T09:41:37.167Z,24.90
2019-04-06T09:47:37.117Z,26.30
2019-04-06T09:53:37.293Z,26.00
2019-04-06T09:59:39.243Z,28.70
2019-04-06T10:05:37.294Z,27.60
2019-04-06T10:11:38.849Z,27.30
2019-04-06T10:17:37.134Z,26.50
2019-04-06T10:23:37.114Z,27.30
2019-04-06T10:29:47.332Z,29.60
2019-04-06T10:35:37.260Z,29.70
2019-04-06T10:41:37.337Z,32.00
2019-04-06T10:47:37.164Z,31.90
2019-04-06T10:53:39.652Z,29.00
2019-04-06T10:59:37.537Z,29.00
2019-04-06T11:05:37.426Z,26.90
2019-04-06T11:11:39.683Z,27.60
2019-04-06T11:17:37.134Z,28.60
2019-04-06T11:23:37.206Z,31.20
2019-04-06T11:29:37.277Z,33.30
2019-04-06T11:35:37.168Z,32.10
2019-04-06T11:41:38.235Z,32.20
2019-04-06T11:47:37.162Z,34.50
2019-04-06T11:53:37.381Z,33.70
2019-04-06T11:59:37.218Z,34.50
2019-04-06T12:05:37.166Z,32.50
2019-04-06T12:11:37.213Z,31.30
2019-04-06T12:17:37.252Z,29.10
2019-04-06T12:23:37.358Z,41.90
2019-04-06T12:29:37.232Z,24.80
2019-04-06T12:35:37.221Z,22.10
2019-04-06T12:41:37.206Z,18.90
2019-04-06T12:47:37.329Z,21.90
2019-04-06T12:53:37.414Z,21.30
2019-04-06T12:59:38.000Z,23.70
2019-04-06T13:05:37.217Z,26.70
2019-04-06T13:11:37.641Z,24.90
2019-04-06T13:17:37.310Z,23.00
2019-04-06T13:23:37.246Z,23.40
2019-04-06T13:29:37.264Z,25.90
2019-04-06T13:35:37.516Z,23.10
2019-04-06T13:41:37.298Z,22.00
2019-04-06T13:47:37.285Z,20.70
2019-04-06T13:53:37.380Z,19.60
2019-04-06T13:59:37.548Z,18.50
2019-04-06T14:05:37.345Z,20.40
2019-04-06T14:11:37.532Z,22.00
2019-04-06T14:17:37.282Z,24.80
2019-04-06T14:23:37.283Z,21.60
2019-04-06T14:29:37.318Z,23.40
2019-04-06T14:35:37.314Z,24.10
2019-04-06T14:41:37.435Z,38.90
2019-04-06T14:47:37.400Z,25.30
2019-04-06T14:53:37.349Z,25.10
2019-04-06T14:59:38.426Z,26.60
2019-04-06T15:05:37.633Z,26.40
2019-04-06T15:11:37.295Z,27.70
2019-04-06T15:17:37.319Z,26.00
2019-04-06T15:23:37.404Z,25.00
2019-04-06T15:29:37.397Z,22.90
2019-04-06T15:35:37.343Z,24.40
2019-04-06T15:41:37.633Z,25.30
2019-04-06T15:47:37.318Z,26.50
2019-04-06T15:53:37.438Z,30.50
2019-04-06T15:59:37.458Z,26.30
2019-04-06T16:05:37.713Z,29.50
2019-04-06T16:11:37.345Z,25.20
2019-04-06T16:17:37.434Z,27.00
2019-04-06T16:23:37.540Z,25.00
2019-04-06T16:29:37.361Z,24.50
2019-04-06T16:35:37.743Z,24.10
2019-04-06T16:41:37.373Z,25.10
2019-04-06T16:47:37.482Z,23.70
2019-04-06T16:53:37.472Z,24.40
2019-04-06T16:59:37.521Z,22.90
2019-04-06T17:05:37.392Z,23.20
2019-04-06T17:11:37.451Z,23.90
2019-04-06T17:17:37.489Z,23.80
2019-04-06T17:23:37.478Z,23.90
2019-04-06T17:29:37.578Z,23.70
2019-04-06T17:35:37.429Z,26.30
2019-04-06T17:41:37.448Z,26.80
2019-04-06T17:47:37.472Z,25.30
2019-04-06T17:53:37.487Z,23.40
2019-04-06T17:59:37.428Z,25.90
2019-04-06T18:05:37.509Z,26.00
2019-04-06T18:11:37.623Z,34.00
2019-04-06T18:17:37.487Z,29.50
2019-04-06T18:23:37.488Z,27.70
2019-04-06T18:29:37.447Z,32.50
2019-04-06T18:35:37.522Z,29.70
2019-04-06T18:41:38.324Z,29.90
2019-04-06T18:47:38.020Z,26.80
2019-04-06T18:53:37.661Z,29.90
2019-04-06T18:59:38.595Z,28.80
2019-04-06T19:05:37.477Z,27.40
2019-04-06T19:11:38.093Z,27.90
2019-04-06T19:17:37.742Z,29.70
2019-04-06T19:23:37.846Z,27.90
2019-04-06T19:29:37.463Z,31.20
2019-04-06T19:35:37.609Z,31.60
2019-04-06T19:41:38.100Z,27.20
2019-04-06T19:47:38.193Z,27.40
2019-04-06T19:53:37.935Z,32.00
2019-04-06T19:59:37.699Z,26.30
2019-04-06T20:05:37.610Z,26.00
2019-04-06T20:11:37.549Z,27.20
2019-04-06T20:17:37.615Z,24.60
2019-04-06T20:23:38.005Z,25.40
2019-04-06T20:29:37.957Z,25.00
2019-04-06T20:35:38.377Z,24.40
2019-04-06T20:41:37.539Z,28.10
2019-04-06T20:47:37.654Z,28.50
2019-04-06T20:58:26.031Z,23.50
2019-04-06T21:04:26.477Z,24.40
2019-04-06T21:10:26.012Z,21.20
2019-04-06T21:16:26.556Z,22.00
2019-04-06T21:22:26.213Z,22.70
2019-04-06T21:28:26.168Z,20.90
2019-04-06T21:34:26.110Z,21.40
2019-04-06T21:40:26.426Z,22.30
2019-04-06T21:46:26.246Z,26.30
2019-04-06T21:52:26.240Z,27.50
2019-04-06T21:58:27.052Z,24.90
2019-04-06T22:04:27.299Z,27.70
2019-04-06T22:10:26.481Z,28.40
2019-04-06T22:16:27.215Z,28.10
2019-04-06T22:22:26.032Z,31.00
2019-04-06T22:28:26.704Z,28.60
2019-04-06T22:34:36.552Z,31.60
2019-04-06T22:40:26.007Z,28.70
2019-04-06T22:46:26.234Z,30.90
2019-04-06T22:52:26.246Z,28.60
2019-04-06T22:58:26.057Z,31.90
2019-04-06T23:04:26.073Z,32.30
2019-04-06T23:10:26.049Z,29.90
2019-04-06T23:16:26.478Z,32.90
2019-04-06T23:22:26.295Z,32.40
2019-04-06T23:28:26.088Z,34.50
2019-04-06T23:34:26.079Z,31.40
2019-04-06T23:40:26.041Z,32.80
2019-04-06T23:46:26.057Z,34.70
2019-04-06T23:52:26.307Z,32.00
2019-04-06T23:58:26.102Z,29.10
